Time;durP1;ratioP1;P1;durP2;ratioP2;P2;SDS_P1;SDS_P2;PMS_P1;PMS_P2;Temp;Humidity;BMP_temperature;BMP_pressure;BME280_temperature;BME280_humidity;BME280_pressure;Samples;Min_cycle;Max_cycle;Signal;HPM_P1;HPM_P2
2022/11/16 06:39:40;;;;;;;36.73;25.43;;;;;;;5.01;100.00;97066.19;1730551;80;21113;-60
2022/11/16 06:42:07;;;;;;;40.43;23.83;;;;;;;5.04;100.00;97062.19;1704088;82;21483;-60
2022/11/16 06:44:35;;;;;;;44.53;25.45;;;;;;;5.03;100.00;97064.58;1719965;81;21382;-60
2022/11/16 06:47:03;;;;;;;53.20;25.90;;;;;;;5.01;100.00;97070.17;1731535;81;21536;-60
2022/11/16 06:49:30;;;;;;;48.08;24.65;;;;;;;5.00;100.00;97069.91;1723784;81;21126;-59
2022/11/16 06:51:59;;;;;;;32.90;21.65;;;;;;;4.95;100.00;97071.26;1739771;80;21488;-60
2022/11/16 06:54:25;;;;;;;29.57;19.92;;;;;;;4.94;100.00;97067.04;1735708;81;21050;-58
2022/11/16 06:56:52;;;;;;;30.40;19.27;;;;;;;4.99;100.00;97063.02;1739742;80;21132;-59
2022/11/16 06:59:19;;;;;;;30.32;19.85;;;;;;;5.02;100.00;97063.78;1719150;80;21065;-60
2022/11/16 07:01:45;;;;;;;26.15;17.92;;;;;;;5.05;100.00;97059.25;1722387;81;20922;-59
2022/11/16 07:04:14;;;;;;;27.77;19.12;;;;;;;5.07;100.00;97058.44;1718928;83;21084;-63
2022/11/16 07:06:44;;;;;;;37.23;23.75;;;;;;;5.12;100.00;97058.40;1701833;82;21012;-62
2022/11/16 07:09:13;;;;;;;32.45;24.12;;;;;;;5.18;100.00;97051.20;1730395;80;21184;-59
2022/11/16 07:11:40;;;;;;;32.53;22.15;;;;;;;5.21;100.00;97051.42;1738057;81;20938;-62
2022/11/16 07:14:07;;;;;;;26.05;18.45;;;;;;;5.17;100.00;97045.09;1742500;80;20967;-59
2022/11/16 07:16:35;;;;;;;24.12;17.10;;;;;;;5.12;100.00;97053.09;1753384;80;21136;-59
2022/11/16 07:19:01;;;;;;;25.27;17.50;;;;;;;5.09;100.00;97049.66;1738052;81;21077;-59
2022/11/16 07:21:29;;;;;;;22.07;15.83;;;;;;;5.07;100.00;97061.09;1749209;80;21961;-59
2022/11/16 07:23:57;;;;;;;19.32;14.20;;;;;;;5.07;100.00;97058.44;1749733;80;21050;-61
2022/11/16 07:26:23;;;;;;;19.00;13.88;;;;;;;5.10;100.00;97063.20;1718815;81;21061;-62
2022/11/16 07:28:52;;;;;;;15.38;11.65;;;;;;;5.08;100.00;97060.03;1755357;80;20947;-60
2022/11/16 07:31:20;;;;;;;16.97;12.55;;;;;;;5.07;100.00;97061.62;1716915;82;21684;-59
2022/11/16 07:33:50;;;;;;;18.92;13.40;;;;;;;5.05;100.00;97064.56;1703059;83;21665;-58
2022/11/16 07:36:37;;;;;;;20.00;13.72;;;;;;;5.03;100.00;97057.41;1693697;81;21090;-57
2022/11/16 07:39:05;;;;;;;18.10;13.10;;;;;;;5.07;100.00;97060.29;1676956;83;21028;-59
2022/11/16 07:41:32;;;;;;;18.73;12.98;;;;;;;5.09;100.00;97056.81;1724108;80;21110;-58
2022/11/16 07:44:05;;;;;;;16.00;11.22;;;;;;;5.09;100.00;97055.49;1762814;79;21070;-59
2022/11/16 07:46:32;;;;;;;14.75;10.38;;;;;;;5.07;100.00;97049.14;1761784;80;21238;-59
2022/11/16 07:48:59;;;;;;;16.95;13.08;;;;;;;5.09;100.00;97050.98;1756360;80;21050;-59
2022/11/16 07:51:37;;;;;;;22.65;17.62;;;;;;;5.10;100.00;97045.95;1728841;80;21116;-59
2022/11/16 07:54:14;;;;;;;22.02;16.95;;;;;;;5.08;100.00;97052.59;1724366;81;20994;-56
2022/11/16 07:56:42;;;;;;;23.73;16.35;;;;;;;5.07;100.00;97043.04;1731968;81;21000;-58
2022/11/16 07:59:09;;;;;;;27.27;19.32;;;;;;;5.08;100.00;97041.45;1748554;81;21165;-60
2022/11/16 08:01:39;;;;;;;28.77;23.05;;;;;;;5.07;100.00;97041.19;1722640;81;21049;-57
2022/11/16 08:04:07;;;;;;;22.40;17.15;;;;;;;5.08;100.00;97045.44;1722020;81;21100;-64
2022/11/16 08:06:33;;;;;;;26.68;19.02;;;;;;;5.05;100.00;97045.98;1747900;80;21136;-59
2022/11/16 08:09:00;;;;;;;21.93;13.40;;;;;;;5.03;100.00;97048.12;1729832;81;21129;-59
2022/11/16 08:11:27;;;;;;;18.80;12.03;;;;;;;4.99;100.00;97040.47;1724724;80;21340;-58
2022/11/16 08:13:55;;;;;;;14.95;11.85;;;;;;;5.00;100.00;97044.69;1720056;81;20937;-59
2022/11/16 08:16:23;;;;;;;14.90;11.40;;;;;;;5.01;100.00;97041.51;1756439;80;20966;-60
2022/11/16 08:18:53;;;;;;;13.62;11.35;;;;;;;5.01;100.00;97040.98;1747958;79;21197;-63
2022/11/16 08:21:20;;;;;;;17.07;12.37;;;;;;;5.01;100.00;97038.33;1736545;80;21484;-58
2022/11/16 08:23:47;;;;;;;15.78;12.07;;;;;;;5.03;100.00;97036.18;1741676;80;21113;-61
2022/11/16 08:26:16;;;;;;;16.05;10.38;;;;;;;5.04;100.00;97039.08;1722570;83;21099;-60
2022/11/16 08:28:46;;;;;;;14.07;10.05;;;;;;;5.06;100.00;97034.30;1718396;81;20989;-62
2022/11/16 08:31:19;;;;;;;19.85;14.65;;;;;;;5.12;100.00;97037.16;1728146;80;21074;-61
2022/11/16 08:33:49;;;;;;;16.60;12.13;;;;;;;5.18;100.00;97025.42;1714689;81;21104;-62
2022/11/16 08:36:16;;;;;;;15.05;10.82;;;;;;;5.20;100.00;97031.27;1726240;80;21189;-60
2022/11/16 08:38:45;;;;;;;11.48;9.43;;;;;;;5.23;100.00;97033.34;1721669;81;20989;-61
2022/11/16 08:41:12;;;;;;;12.30;8.55;;;;;;;5.30;100.00;97028.50;1737565;80;20991;-59
2022/11/16 08:43:43;;;;;;;10.15;7.95;;;;;;;5.37;100.00;97028.97;1732175;81;20923;-61
2022/11/16 08:46:10;;;;;;;15.28;8.00;;;;;;;5.40;100.00;97029.75;1729487;81;21057;-62
2022/11/16 08:48:38;;;;;;;10.38;8.33;;;;;;;5.46;100.00;97024.62;1717001;80;21326;-63
2022/11/16 08:51:13;;;;;;;12.43;9.90;;;;;;;5.54;100.00;97026.69;1695840;83;21056;-60
2022/11/16 08:53:47;;;;;;;15.32;10.30;;;;;;;5.59;100.00;97027.17;1749250;80;21023;-60
2022/11/16 08:56:19;;;;;;;13.95;10.38;;;;;;;5.63;100.00;97022.11;1752932;80;21040;-60
2022/11/16 08:58:52;;;;;;;13.75;11.22;;;;;;;5.67;100.00;97025.24;1729480;81;21213;-62
2022/11/16 09:01:23;;;;;;;16.60;12.20;;;;;;;5.68;100.00;97027.34;1724071;80;21101;-61
2022/11/16 09:03:52;;;;;;;11.35;9.78;;;;;;;5.70;100.00;97027.87;1737982;80;21018;-62
2022/11/16 09:06:24;;;;;;;13.10;10.28;;;;;;;5.69;100.00;97028.94;1746165;80;20981;-58
2022/11/16 09:09:01;;;;;;;11.28;8.78;;;;;;;5.68;100.00;97027.34;1730838;80;21041;-67
2022/11/16 09:11:37;;;;;;;13.00;9.10;;;;;;;5.68;100.00;97028.14;1709078;81;21082;-61
2022/11/16 09:14:13;;;;;;;11.78;9.55;;;;;;;5.72;100.00;97029.71;1741721;81;21021;-57
2022/11/16 09:16:48;;;;;;;12.58;9.05;;;;;;;5.73;100.00;97017.98;1712823;82;20919;-60
2022/11/16 09:19:21;;;;;;;11.28;8.20;;;;;;;5.65;100.00;97021.28;1721751;82;21036;-63
2022/11/16 09:21:51;;;;;;;11.75;7.42;;;;;;;5.61;100.00;97020.23;1755135;80;21014;-61
2022/11/16 09:24:18;;;;;;;10.18;7.65;;;;;;;5.60;100.00;97023.45;1777407;80;21058;-60
2022/11/16 09:26:49;;;;;;;11.25;8.83;;;;;;;5.61;100.00;97022.37;1735205;79;21097;-61
2022/11/16 09:29:17;;;;;;;10.55;8.58;;;;;;;5.63;100.00;97018.12;1710092;81;20950;-59
2022/11/16 09:31:44;;;;;;;9.70;6.83;;;;;;;5.68;100.00;97010.07;1729935;81;20993;-61
2022/11/16 09:34:12;;;;;;;8.03;5.28;;;;;;;5.76;100.00;97001.49;1725081;81;21086;-63
2022/11/16 09:36:39;;;;;;;6.20;4.22;;;;;;;5.88;100.00;97008.56;1725036;82;21095;-60
2022/11/16 09:39:06;;;;;;;6.35;5.22;;;;;;;5.99;100.00;97004.70;1722046;81;21904;-60
2022/11/16 09:41:55;;;;;;;6.50;5.78;;;;;;;6.07;100.00;97001.42;1745187;80;20898;-61
2022/11/16 09:45:08;;;;;;;5.90;5.08;;;;;;;6.10;100.00;96995.55;1729368;80;20985;-61
2022/11/16 09:47:56;;;;;;;7.20;5.50;;;;;;;6.00;99.81;96999.66;1740662;80;21074;-60
2022/11/16 09:50:52;;;;;;;5.65;4.42;;;;;;;5.86;99.64;96996.10;1723072;82;21194;-64
2022/11/16 09:53:39;;;;;;;5.50;3.92;;;;;;;5.81;99.71;96994.80;1737356;80;21438;-60
2022/11/16 09:56:11;;;;;;;4.65;3.72;;;;;;;5.73;99.77;96983.45;1729666;80;20967;-58
2022/11/16 09:59:09;;;;;;;4.50;3.58;;;;;;;5.73;100.00;96986.91;1727221;81;21035;-60
2022/11/16 10:01:45;;;;;;;7.83;3.60;;;;;;;5.76;100.00;96981.03;1743165;80;21071;-63
2022/11/16 10:04:42;;;;;;;5.30;3.87;;;;;;;5.81;100.00;96980.18;1722505;81;21060;-58
2022/11/16 10:07:25;;;;;;;4.53;4.03;;;;;;;5.78;99.73;96972.77;1722365;81;21169;-61
2022/11/16 10:09:52;;;;;;;4.00;3.30;;;;;;;5.77;99.79;96973.86;1726662;80;21095;-61
2022/11/16 10:12:30;;;;;;;4.08;3.25;;;;;;;5.73;99.26;96978.14;1721190;81;21545;-61
2022/11/16 10:15:15;;;;;;;4.22;3.22;;;;;;;5.65;99.32;96972.94;1752405;79;21120;-61
2022/11/16 10:18:02;;;;;;;4.47;3.20;;;;;;;5.62;99.58;96967.37;1717314;80;21167;-61
2022/11/16 10:20:47;;;;;;;4.80;3.33;;;;;;;5.59;99.58;96970.59;1748306;80;21309;-60
2022/11/16 10:23:55;;;;;;;4.37;3.57;;;;;;;5.63;100.00;96964.98;1761826;80;21026;-61
2022/11/16 10:26:47;;;;;;;3.77;3.05;;;;;;;5.68;100.00;96960.92;1737903;81;21056;-60
2022/11/16 10:29:49;;;;;;;4.50;2.85;;;;;;;5.75;99.93;96960.04;1714018;80;21079;-67
2022/11/16 10:32:28;;;;;;;5.03;3.60;;;;;;;5.79;99.94;96957.09;1724878;80;21127;-61
2022/11/16 10:35:11;;;;;;;6.85;4.47;;;;;;;5.84;100.00;96948.53;1726336;81;21660;-62
2022/11/16 10:37:49;;;;;;;7.85;5.15;;;;;;;5.93;100.00;96947.38;1727719;81;21394;-62
2022/11/16 10:40:31;;;;;;;6.17;3.92;;;;;;;5.97;99.70;96945.19;1732637;81;21426;-69
2022/11/16 10:43:14;;;;;;;4.80;3.30;;;;;;;5.90;99.30;96946.61;1717031;81;21036;-61
2022/11/16 10:45:59;;;;;;;4.12;3.17;;;;;;;5.83;99.01;96946.14;1727621;81;21456;-61
2022/11/16 10:48:49;;;;;;;5.60;4.83;;;;;;;5.73;98.81;96951.56;1751411;80;21190;-59
2022/11/16 10:51:15;;;;;;;5.65;4.75;;;;;;;5.69;99.25;96946.58;1733066;81;20998;-64
2022/11/16 10:53:43;;;;;;;5.78;4.67;;;;;;;5.70;99.26;96942.30;1728963;80;21010;-60
2022/11/16 10:56:31;;;;;;;4.35;3.70;;;;;;;5.70;99.21;96942.30;1707641;80;21013;-61
2022/11/16 10:59:06;;;;;;;4.25;2.87;;;;;;;5.71;98.99;96944.42;1717983;80;21508;-63
2022/11/16 11:01:45;;;;;;;4.15;2.83;;;;;;;5.67;98.81;96939.43;1727479;80;21376;-57
2022/11/16 11:04:33;;;;;;;3.92;3.47;;;;;;;5.65;98.97;96943.70;1740505;80;20976;-58
2022/11/16 11:07:41;;;;;;;4.17;3.65;;;;;;;5.69;99.06;96941.26;1728038;80;20979;-60
2022/11/16 11:10:37;;;;;;;6.37;4.05;;;;;;;5.67;99.11;96938.10;1732962;80;21624;-59
2022/11/16 11:13:16;;;;;;;4.37;3.20;;;;;;;5.71;99.31;96936.45;1734271;81;21550;-59
2022/11/16 11:15:43;;;;;;;4.05;3.20;;;;;;;5.67;98.91;96934.11;1692528;83;21125;-59
2022/11/16 11:18:28;;;;;;;5.12;3.65;;;;;;;5.62;98.78;96930.19;1746074;79;21009;-59
2022/11/16 11:21:09;;;;;;;4.90;3.75;;;;;;;5.54;98.48;96931.06;1745364;80;22535;-58
2022/11/16 11:23:48;;;;;;;6.75;3.87;;;;;;;5.57;99.01;96934.22;1742226;80;21053;-59
2022/11/16 11:26:37;;;;;;;4.80;4.25;;;;;;;5.65;99.16;96941.58;1726811;80;21245;-59
2022/11/16 11:29:26;;;;;;;4.85;3.95;;;;;;;5.72;99.28;96930.08;1720231;81;20987;-58
2022/11/16 11:32:03;;;;;;;5.25;3.67;;;;;;;5.74;99.09;96927.39;1726195;81;21065;-61
2022/11/16 11:34:46;;;;;;;4.35;3.47;;;;;;;5.79;99.13;96922.02;1730430;80;21117;-58
2022/11/16 11:37:24;;;;;;;4.70;3.55;;;;;;;5.81;98.96;96916.41;1728977;80;21567;-60
2022/11/16 11:40:24;;;;;;;5.67;3.10;;;;;;;5.83;98.88;96927.53;1725328;81;21027;-61
2022/11/16 11:43:04;;;;;;;4.03;3.30;;;;;;;5.84;98.96;96919.30;1749341;80;22005;-64
2022/11/16 11:45:42;;;;;;;4.72;3.62;;;;;;;5.85;98.72;96912.92;1723842;81;20942;-63
2022/11/16 11:48:28;;;;;;;5.12;3.83;;;;;;;5.85;98.39;96912.13;1741175;81;20971;-60
2022/11/16 11:51:23;;;;;;;7.12;5.10;;;;;;;5.76;98.04;96916.47;1729392;81;21468;-62
2022/11/16 11:53:58;;;;;;;7.90;6.12;;;;;;;5.68;98.17;96917.08;1749983;80;21123;-58
2022/11/16 11:56:26;;;;;;;9.50;6.58;;;;;;;5.64;98.50;96920.06;1721324;80;21199;-58
2022/11/16 11:58:53;;;;;;;7.08;5.62;;;;;;;5.58;98.60;96914.57;1742554;81;20901;-60
2022/11/16 12:01:40;;;;;;;7.42;6.47;;;;;;;5.46;98.76;96919.72;1737102;81;20904;-59
2022/11/16 12:04:33;;;;;;;8.58;7.67;;;;;;;5.41;99.17;96921.66;1726846;80;21080;-59
2022/11/16 12:07:37;;;;;;;11.63;9.58;;;;;;;5.33;99.36;96917.76;1725276;80;20891;-66
2022/11/16 12:10:34;;;;;;;11.80;9.25;;;;;;;5.23;99.61;96914.44;1742633;80;21507;-65
2022/11/16 12:13:38;;;;;;;13.10;9.08;;;;;;;5.18;100.00;96909.17;1720517;81;20967;-66
2022/11/16 12:16:45;;;;;;;7.47;6.12;;;;;;;5.18;100.00;96907.84;1744615;79;21502;-58
2022/11/16 12:19:44;;;;;;;8.35;5.60;;;;;;;5.15;100.00;96908.41;1743616;79;21502;-58
2022/11/16 12:22:49;;;;;;;8.55;6.58;;;;;;;5.09;100.00;96908.98;1705966;80;21087;-60
2022/11/16 12:25:40;;;;;;;8.35;7.12;;;;;;;5.07;100.00;96911.12;1739832;80;21540;-60
2022/11/16 12:28:41;;;;;;;7.17;5.83;;;;;;;5.15;100.00;96903.89;1749033;80;21067;-58
2022/11/16 12:31:26;;;;;;;8.30;6.20;;;;;;;5.24;100.00;96902.20;1730036;81;21032;-59
2022/11/16 12:34:14;;;;;;;5.67;4.83;;;;;;;5.28;100.00;96902.41;1734650;81;20991;-61
2022/11/16 12:37:06;;;;;;;6.60;4.67;;;;;;;5.28;100.00;96893.91;1743203;79;21061;-63
2022/11/16 12:39:44;;;;;;;5.00;4.30;;;;;;;5.27;100.00;96898.98;1740680;81;21239;-62
2022/11/16 12:42:36;;;;;;;5.58;3.70;;;;;;;5.26;100.00;96899.25;1709143;81;21548;-60
2022/11/16 12:45:29;;;;;;;5.83;3.98;;;;;;;5.22;100.00;96904.88;1708438;81;20966;-59
2022/11/16 12:48:32;;;;;;;4.85;4.35;;;;;;;5.18;100.00;96904.63;1741095;80;21490;-59
2022/11/16 12:51:38;;;;;;;5.72;4.65;;;;;;;5.16;100.00;96904.13;1753294;80;21012;-60
2022/11/16 12:54:19;;;;;;;7.50;5.85;;;;;;;5.13;100.00;96911.88;1730179;80;21242;-59
2022/11/16 12:57:33;;;;;;;6.60;5.78;;;;;;;5.14;100.00;96910.79;1729751;80;21061;-61
2022/11/16 13:00:12;;;;;;;4.67;3.90;;;;;;;5.13;100.00;96912.67;1738014;81;22020;-59
2022/11/16 13:03:20;;;;;;;5.92;3.95;;;;;;;5.06;100.00;96912.22;1735852;81;21017;-60
2022/11/16 13:06:15;;;;;;;8.08;6.17;;;;;;;5.05;100.00;96905.31;1708101;81;21106;-60
2022/11/16 13:09:04;;;;;;;5.60;5.03;;;;;;;5.08;100.00;96904.77;1706394;82;20960;-59
2022/11/16 13:11:39;;;;;;;6.17;4.87;;;;;;;5.08;100.00;96899.98;1741661;80;20928;-59
2022/11/16 13:14:11;;;;;;;8.18;5.42;;;;;;;5.04;100.00;96902.39;1706337;80;21167;-59
2022/11/16 13:16:38;;;;;;;9.28;6.47;;;;;;;4.99;100.00;96905.65;1708455;81;20914;-60
2022/11/16 13:19:05;;;;;;;6.80;5.03;;;;;;;4.92;100.00;96898.55;1721432;82;21486;-59
2022/11/16 13:21:50;;;;;;;7.17;4.83;;;;;;;4.87;100.00;96903.38;1696102;82;21238;-60
2022/11/16 13:24:41;;;;;;;5.92;4.37;;;;;;;4.84;100.00;96907.91;1722120;81;21082;-60
2022/11/16 13:27:31;;;;;;;6.42;4.90;;;;;;;4.83;100.00;96897.02;1705042;81;20928;-60
2022/11/16 13:30:06;;;;;;;5.85;4.58;;;;;;;4.91;100.00;96910.22;1688667;82;21496;-59
2022/11/16 13:33:23;;;;;;;6.33;5.10;;;;;;;4.94;100.00;96909.14;1743069;80;21063;-60
2022/11/16 13:35:51;;;;;;;5.80;4.42;;;;;;;4.94;100.00;96909.14;1748090;80;21008;-61
2022/11/16 13:38:48;;;;;;;6.83;4.35;;;;;;;4.91;100.00;96905.72;1724561;81;21162;-58
2022/11/16 13:41:32;;;;;;;6.95;5.00;;;;;;;4.91;100.00;96907.57;1703546;81;20910;-59
2022/11/16 13:44:07;;;;;;;;;;;;;;;4.94;100.00;96899.86;1716185;82;21072;-58
2022/11/16 13:46:48;;;;;;;6.20;4.60;;;;;;;4.97;100.00;96898.51;1715321;81;20171;-59
2022/11/16 13:49:25;;;;;;;5.35;4.45;;;;;;;4.91;100.00;96900.41;1722079;80;21853;-60
2022/11/16 13:51:55;;;;;;;5.50;4.40;;;;;;;4.88;100.00;96899.63;1702127;81;21117;-60
2022/11/16 13:54:36;;;;;;;5.10;4.00;;;;;;;4.88;100.00;96902.28;1745298;81;20978;-60
2022/11/16 13:57:25;;;;;;;5.17;4.30;;;;;;;4.84;100.00;96897.29;1741299;80;21666;-60
2022/11/16 14:00:09;;;;;;;5.08;4.12;;;;;;;4.82;100.00;96903.41;1694692;83;21030;-60
2022/11/16 14:02:39;;;;;;;6.55;5.15;;;;;;;4.83;100.00;96900.47;1701229;83;21131;-60
2022/11/16 14:05:39;;;;;;;7.03;5.53;;;;;;;4.82;100.00;96902.89;1690832;83;20981;-60
2022/11/16 14:08:38;;;;;;;6.17;5.00;;;;;;;4.81;100.00;96905.80;1687869;83;21223;-58
2022/11/16 14:11:25;;;;;;;5.42;4.28;;;;;;;4.81;100.00;96905.27;1696449;83;21065;-59
2022/11/16 14:13:52;;;;;;;6.60;4.97;;;;;;;4.78;100.00;96907.15;1687974;83;20977;-59
2022/11/16 14:16:25;;;;;;;6.72;5.30;;;;;;;4.75;100.00;96902.42;1679404;83;21242;-59
2022/11/16 14:18:54;;;;;;;6.37;5.08;;;;;;;4.72;100.00;96900.84;1700676;83;20946;-59
2022/11/16 14:21:39;;;;;;;9.48;7.12;;;;;;;4.67;100.00;96910.17;1675327;83;20961;-59
2022/11/16 14:24:35;;;;;;;11.20;7.45;;;;;;;4.64;100.00;96908.09;1669325;84;21061;-61
2022/11/16 14:27:16;;;;;;;12.85;9.40;;;;;;;4.63;100.00;96911.27;1666818;84;21082;-60
2022/11/16 14:29:54;;;;;;;11.43;7.90;;;;;;;4.64;100.00;96909.42;1708568;83;21192;-61
2022/11/16 14:32:33;;;;;;;11.57;8.45;;;;;;;4.66;100.00;96905.95;1700002;83;21029;-60
2022/11/16 14:35:03;;;;;;;9.90;7.67;;;;;;;4.71;100.00;96904.58;1705754;82;20953;-58
2022/11/16 14:37:36;;;;;;;13.08;9.45;;;;;;;4.70;100.00;96905.11;1696783;82;21045;-59
2022/11/16 14:40:16;;;;;;;9.33;7.40;;;;;;;4.68;100.00;96901.95;1691093;83;20926;-59
2022/11/16 14:42:57;;;;;;;10.03;8.25;;;;;;;4.64;100.00;96902.79;1690997;83;21707;-60
2022/11/16 14:45:29;;;;;;;13.70;8.63;;;;;;;4.57;100.00;96907.06;1679168;83;20980;-59
2022/11/16 14:48:15;;;;;;;8.68;6.97;;;;;;;4.51;100.00;96898.91;1688353;83;21123;-60
2022/11/16 14:50:44;;;;;;;9.48;7.55;;;;;;;4.49;100.00;96903.70;1683352;84;20976;-61
2022/11/16 14:53:14;;;;;;;7.58;6.05;;;;;;;4.49;100.00;96897.59;1650109;85;21044;-61
2022/11/16 14:55:42;;;;;;;9.30;6.40;;;;;;;4.45;100.00;96901.88;1648333;86;21142;-61
2022/11/16 14:58:19;;;;;;;7.12;6.03;;;;;;;4.44;100.00;96902.94;1630491;86;21443;-61
2022/11/16 15:00:57;;;;;;;8.13;6.10;;;;;;;4.43;100.00;96905.34;1674083;83;21054;-60
2022/11/16 15:03:33;;;;;;;6.30;5.17;;;;;;;4.39;100.00;96908.27;1695082;83;20934;-61
2022/11/16 15:06:01;;;;;;;8.23;5.90;;;;;;;4.42;100.00;96911.17;1663009;84;20965;-58
2022/11/16 15:08:52;;;;;;;9.00;6.20;;;;;;;4.45;100.00;96915.13;1684879;85;21079;-59
2022/11/16 15:12:40;;;;;;;8.50;6.22;;;;;;;4.50;100.00;96914.55;1703455;82;21136;-60
2022/11/16 15:13:57;;;;;;;9.93;6.30;;;;;;;4.54;100.00;96914.27;1699589;83;20997;-59
2022/11/16 15:16:23;;;;;;;11.33;7.37;;;;;;;4.53;100.00;96910.55;1698320;83;21049;-59
2022/11/16 15:19:00;;;;;;;10.53;7.37;;;;;;;4.52;100.00;96908.98;1700653;83;20914;-59
2022/11/16 15:21:28;;;;;;;9.10;7.42;;;;;;;4.56;100.00;96907.34;1708732;83;21313;-59
2022/11/16 15:23:55;;;;;;;8.50;6.20;;;;;;;4.59;100.00;96899.62;1704521;83;20971;-60
2022/11/16 15:26:21;;;;;;;8.95;7.12;;;;;;;4.59;100.00;96905.48;1687417;83;20878;-60
2022/11/16 15:28:49;;;;;;;7.95;6.20;;;;;;;4.57;100.00;96902.31;1682806;83;20930;-60
2022/11/16 15:31:15;;;;;;;11.73;6.33;;;;;;;4.55;100.00;96904.43;1706333;82;21021;-60
2022/11/16 15:33:44;;;;;;;11.45;7.40;;;;;;;4.54;100.00;96913.47;1711522;83;21174;-61
2022/11/16 15:36:32;;;;;;;15.55;9.43;;;;;;;4.55;100.00;96912.38;1692441;82;20950;-59
2022/11/16 15:38:59;;;;;;;10.25;7.10;;;;;;;4.55;100.00;96912.38;1673157;84;20927;-60
2022/11/16 15:41:28;;;;;;;13.15;7.80;;;;;;;4.56;100.00;96920.61;1707638;82;21478;-60
2022/11/16 15:43:57;;;;;;;11.28;7.97;;;;;;;4.57;100.00;96924.30;1659772;83;21010;-60
2022/11/16 15:46:30;;;;;;;12.55;7.40;;;;;;;4.60;100.00;96916.33;1677806;83;21136;-60
2022/11/16 15:48:56;;;;;;;12.85;7.03;;;;;;;4.61;100.00;96915.27;1692315;83;21015;-59
2022/11/16 15:51:23;;;;;;;11.85;6.37;;;;;;;4.61;100.00;96909.44;1684518;83;20958;-59
2022/11/16 15:53:53;;;;;;;10.68;6.47;;;;;;;4.62;100.00;96907.55;1681123;83;21018;-59
2022/11/16 15:56:30;;;;;;;12.60;9.05;;;;;;;4.65;100.00;96901.70;1641026;87;20886;-60
2022/11/16 15:59:00;;;;;;;12.88;9.20;;;;;;;4.65;100.00;96896.39;1701550;83;22095;-60
2022/11/16 16:01:29;;;;;;;14.63;11.05;;;;;;;4.64;100.00;96892.95;1704539;83;20903;-59
2022/11/16 16:04:03;;;;;;;14.65;10.03;;;;;;;4.66;100.00;96890.03;1694982;82;21544;-60
2022/11/16 16:06:50;;;;;;;16.85;10.23;;;;;;;4.69;100.00;96888.12;1707721;83;20986;-60
2022/11/16 16:09:35;;;;;;;;;;;;;;;4.70;100.00;96895.03;1707090;83;21006;-59
2022/11/16 16:12:22;;;;;;;7.30;5.03;;;;;;;4.64;100.00;96888.97;1699386;83;21272;-60
2022/11/16 16:14:51;;;;;;;8.63;5.97;;;;;;;4.56;100.00;96897.54;1700171;83;20906;-59
2022/11/16 16:17:27;;;;;;;8.85;5.08;;;;;;;4.49;100.00;96894.41;1691124;83;21516;-59
2022/11/16 16:20:04;;;;;;;7.33;4.12;;;;;;;4.49;100.00;96894.41;1686754;83;20956;-59
2022/11/16 16:22:35;;;;;;;4.53;3.58;;;;;;;4.54;100.00;96896.23;1709036;83;21139;-59
2022/11/16 16:25:04;;;;;;;5.95;4.20;;;;;;;4.52;100.00;96895.72;1657658;85;22061;-59
2022/11/16 16:27:33;;;;;;;5.30;3.27;;;;;;;4.51;100.00;96894.92;1681962;82;20965;-59
2022/11/16 16:30:04;;;;;;;4.00;2.77;;;;;;;4.46;100.00;96889.66;1690779;83;20875;-60
2022/11/16 16:32:33;;;;;;;3.75;2.80;;;;;;;4.44;100.00;96892.33;1705823;82;21381;-59
2022/11/16 16:35:02;;;;;;;2.42;2.00;;;;;;;4.47;100.00;96889.13;1715707;83;20890;-60
2022/11/16 16:37:32;;;;;;;2.33;1.82;;;;;;;4.47;100.00;96886.48;1715090;83;21224;-59
2022/11/16 16:39:59;;;;;;;2.92;2.10;;;;;;;4.46;100.00;96884.88;1707425;83;21513;-60
2022/11/16 16:42:26;;;;;;;2.22;2.02;;;;;;;4.42;100.00;96889.17;1691335;83;20935;-60
2022/11/16 16:44:54;;;;;;;2.90;1.98;;;;;;;4.33;100.00;96886.33;1714582;83;20989;-60
2022/11/16 16:47:22;;;;;;;2.27;1.98;;;;;;;4.30;100.00;96878.13;1714255;83;20937;-59
2022/11/16 16:49:48;;;;;;;2.35;1.80;;;;;;;4.31;100.00;96883.69;1686800;83;21980;-59
2022/11/16 16:52:16;;;;;;;1.62;1.32;;;;;;;4.31;100.00;96879.16;1698906;83;21529;-59
2022/11/16 16:54:44;;;;;;;2.83;1.57;;;;;;;4.35;100.00;96870.13;1703399;83;21092;-59
2022/11/16 16:57:17;;;;;;;1.82;1.50;;;;;;;4.37;100.00;96874.63;1708493;83;21580;-60
2022/11/16 16:59:44;;;;;;;1.40;1.30;;;;;;;4.38;100.00;96870.91;1704230;83;20982;-61
2022/11/16 17:02:11;;;;;;;1.87;1.07;;;;;;;4.39;100.00;96871.95;1715042;83;21663;-61
2022/11/16 17:04:37;;;;;;;1.85;1.17;;;;;;;4.34;100.00;96869.86;1717876;83;21524;-61
2022/11/16 17:07:04;;;;;;;1.80;1.37;;;;;;;4.30;100.00;96867.52;1694189;83;21005;-61
2022/11/16 17:09:31;;;;;;;1.25;1.05;;;;;;;4.29;100.00;96868.58;1699437;83;21437;-61
2022/11/16 17:11:57;;;;;;;3.33;1.40;;;;;;;4.28;100.00;96867.80;1712778;83;21014;-60
2022/11/16 17:14:24;;;;;;;1.50;1.10;;;;;;;4.25;100.00;96867.02;1679970;83;21930;-61
2022/11/16 17:16:51;;;;;;;1.40;1.10;;;;;;;4.20;100.00;96867.58;1704116;83;21492;-61
2022/11/16 17:19:18;;;;;;;3.52;1.20;;;;;;;4.19;100.00;96876.63;1700756;83;21003;-60
2022/11/16 17:21:45;;;;;;;1.70;0.80;;;;;;;4.17;100.00;96874.78;1700281;83;20950;-61
2022/11/16 17:24:11;;;;;;;1.85;1.15;;;;;;;4.14;100.00;96886.17;1701983;83;21590;-60
2022/11/16 17:26:40;;;;;;;1.20;1.00;;;;;;;4.13;100.00;96876.65;1697160;83;21484;-60
2022/11/16 17:29:06;;;;;;;2.33;1.02;;;;;;;4.17;100.00;96872.13;1715810;83;20867;-60
2022/11/16 17:31:35;;;;;;;4.30;1.00;;;;;;;4.19;100.00;96878.74;1694378;83;20934;-61
2022/11/16 17:34:02;;;;;;;1.25;0.98;;;;;;;4.19;100.00;96874.77;1682075;83;20922;-61
2022/11/16 17:36:28;;;;;;;2.80;1.05;;;;;;;4.19;100.00;96869.99;1703107;83;21046;-60
2022/11/16 17:38:55;;;;;;;1.45;1.02;;;;;;;4.19;100.00;96868.67;1689218;83;21163;-61
2022/11/16 17:41:22;;;;;;;1.52;1.12;;;;;;;4.23;100.00;96871.02;1703522;82;20922;-61
2022/11/16 17:43:52;;;;;;;1.30;1.00;;;;;;;4.23;100.00;96869.16;1686707;83;20930;-61
2022/11/16 17:46:20;;;;;;;1.75;1.12;;;;;;;4.22;100.00;96876.05;1694507;83;21489;-61
2022/11/16 17:48:49;;;;;;;2.85;1.00;;;;;;;4.20;100.00;96872.88;1682605;83;20910;-61
2022/11/16 17:51:18;;;;;;;1.10;0.90;;;;;;;4.21;100.00;96877.13;1709294;83;21139;-61
2022/11/16 17:53:48;;;;;;;1.35;0.98;;;;;;;4.16;100.00;96875.31;1704444;83;21006;-61
2022/11/16 17:56:17;;;;;;;1.07;0.95;;;;;;;4.18;100.00;96880.33;1698876;82;21074;-61
2022/11/16 17:58:46;;;;;;;1.27;0.82;;;;;;;4.21;100.00;96878.45;1709232;83;21005;-60
2022/11/16 18:01:14;;;;;;;1.32;1.00;;;;;;;4.23;100.00;96885.59;1714374;83;21131;-61
2022/11/16 18:03:40;;;;;;;0.95;0.72;;;;;;;4.19;100.00;96879.27;1717476;83;21140;-61
2022/11/16 18:06:13;;;;;;;1.32;0.82;;;;;;;4.15;100.00;96883.79;1696023;83;20914;-61
2022/11/16 18:08:42;;;;;;;1.42;0.70;;;;;;;4.14;100.00;96880.86;1700485;83;20961;-59
2022/11/16 18:11:22;;;;;;;0.80;0.70;;;;;;;4.13;100.00;96889.10;1691023;83;20926;-60
2022/11/16 18:13:56;;;;;;;1.10;0.60;;;;;;;4.11;100.00;96894.69;1679973;83;21010;-61
2022/11/16 18:16:26;;;;;;;1.02;0.70;;;;;;;4.11;100.00;96889.39;1707041;83;21512;-60
2022/11/16 18:19:01;;;;;;;1.17;0.93;;;;;;;4.14;100.00;96883.52;1708203;83;21138;-61
2022/11/16 18:21:30;;;;;;;1.30;1.00;;;;;;;4.18;100.00;96879.00;1684587;83;20871;-59
2022/11/16 18:23:59;;;;;;;1.27;0.70;;;;;;;4.19;100.00;96885.37;1710284;83;21058;-59
2022/11/16 18:26:26;;;;;;;1.15;0.60;;;;;;;4.18;100.00;96879.00;1717930;83;20961;-60
2022/11/16 18:28:53;;;;;;;0.72;0.60;;;;;;;4.10;100.00;96883.81;1702727;83;22029;-60
2022/11/16 18:31:22;;;;;;;0.90;0.70;;;;;;;4.01;100.00;96878.84;1702150;83;21663;-60
2022/11/16 18:33:48;;;;;;;0.80;0.60;;;;;;;3.95;100.00;96874.66;1698198;83;20983;-60
2022/11/16 18:36:16;;;;;;;0.85;0.70;;;;;;;3.91;100.00;96880.22;1715580;83;20981;-61
2022/11/16 18:38:42;;;;;;;1.07;0.70;;;;;;;3.91;100.00;96883.43;1699033;83;20966;-60
2022/11/16 18:41:18;;;;;;;0.62;0.50;;;;;;;3.90;100.00;96880.52;1706636;83;21263;-60
2022/11/16 18:43:50;;;;;;;1.30;0.80;;;;;;;3.85;100.00;96880.01;1704387;83;20993;-60
2022/11/16 18:46:23;;;;;;;0.62;0.60;;;;;;;3.86;100.00;96884.78;1685509;83;20922;-61
2022/11/16 18:48:49;;;;;;;0.57;0.53;;;;;;;3.84;100.00;96877.09;1700927;83;21041;-62
2022/11/16 18:51:17;;;;;;;1.50;0.80;;;;;;;3.82;100.00;96881.88;1703048;83;21450;-60